Time;durP1;ratioP1;P1;durP2;ratioP2;P2;SDS_P1;SDS_P2;PMS_P1;PMS_P2;Temp;Humidity;BMP_temperature;BMP_pressure;BME280_temperature;BME280_humidity;BME280_pressure;Samples;Min_cycle;Max_cycle;Signal;HPM_P1;HPM_P2
2021/03/26 00:01:33;;;;;;;24.57;20.03;;;9.90;39.70;;;;;;5072167;28;20160;-83
2021/03/26 00:04:03;;;;;;;26.40;20.07;;;9.90;42.10;;;;;;5075164;28;20163;-81
2021/03/26 00:06:31;;;;;;;25.47;19.63;;;9.80;43.10;;;;;;5064977;28;20168;-84
2021/03/26 00:08:57;;;;;;;22.23;18.80;;;9.80;44.40;;;;;;5064181;28;20180;-83
2021/03/26 00:11:27;;;;;;;29.27;22.73;;;9.80;44.60;;;;;;5081458;28;20233;-81
2021/03/26 00:13:52;;;;;;;23.17;19.83;;;9.80;45.00;;;;;;5065104;28;20193;-81
2021/03/26 00:16:19;;;;;;;25.97;20.53;;;9.80;46.00;;;;;;5064685;28;20180;-82
2021/03/26 00:18:45;;;;;;;25.27;19.13;;;9.70;46.00;;;;;;5063093;28;20244;-81
2021/03/26 00:21:11;;;;;;;23.20;19.07;;;9.70;47.30;;;;;;5082734;28;20301;-80
2021/03/26 00:23:36;;;;;;;23.23;19.97;;;9.60;49.30;;;;;;5064083;28;20179;-81
2021/03/26 00:26:03;;;;;;;26.27;20.47;;;9.60;50.70;;;;;;5060768;28;20574;-80
2021/03/26 00:28:29;;;;;;;25.43;20.00;;;9.50;52.50;;;;;;5065711;28;20199;-82
2021/03/26 00:30:55;;;;;;;25.10;19.47;;;9.50;54.80;;;;;;5054333;28;20216;-84
2021/03/26 00:33:20;;;;;;;27.47;20.07;;;9.50;54.80;;;;;;5072479;28;20207;-82
2021/03/26 00:35:47;;;;;;;25.87;20.57;;;9.50;53.90;;;;;;5054341;28;20523;-85
2021/03/26 00:38:13;;;;;;;25.70;19.80;;;9.50;54.50;;;;;;5072331;28;20230;-79
2021/03/26 00:40:38;;;;;;;24.97;19.17;;;9.50;53.90;;;;;;5074553;28;20176;-82
2021/03/26 00:43:04;;;;;;;26.50;21.00;;;9.50;54.00;;;;;;5080860;28;20188;-84
2021/03/26 00:45:34;;;;;;;24.63;19.70;;;9.60;51.40;;;;;;5074046;28;20172;-83
2021/03/26 00:48:00;;;;;;;24.97;18.50;;;9.70;51.20;;;;;;5073567;28;20168;-83
2021/03/26 00:50:42;;;;;;;25.67;19.50;;;9.60;50.50;;;;;;5056084;28;20211;-84
2021/03/26 00:53:15;;;;;;;25.30;19.67;;;9.60;50.10;;;;;;5056952;28;20176;-84
2021/03/26 00:55:41;;;;;;;26.30;19.73;;;9.70;51.60;;;;;;5076060;28;20176;-83
2021/03/26 00:58:07;;;;;;;25.40;20.57;;;9.70;48.60;;;;;;5076097;28;20168;-81
2021/03/26 01:00:36;;;;;;;25.97;20.27;;;9.70;48.30;;;;;;5075908;28;20253;-83
2021/03/26 01:03:02;;;;;;;25.20;20.70;;;9.80;47.30;;;;;;5076205;28;20196;-83
2021/03/26 01:05:32;;;;;;;23.50;19.77;;;9.70;44.60;;;;;;5075206;28;20250;-85
2021/03/26 01:07:59;;;;;;;23.33;19.33;;;9.60;44.50;;;;;;5057707;28;20180;-84
2021/03/26 01:10:30;;;;;;;24.67;19.33;;;9.60;45.00;;;;;;5075541;28;20211;-82
2021/03/26 01:12:56;;;;;;;23.73;19.23;;;9.60;46.90;;;;;;5075430;28;20182;-83
2021/03/26 01:15:25;;;;;;;24.80;19.27;;;9.60;47.30;;;;;;5074908;28;20176;-84
2021/03/26 01:17:52;;;;;;;23.93;18.47;;;9.60;46.10;;;;;;5075767;28;20156;-82
2021/03/26 01:20:31;;;;;;;23.70;19.23;;;9.60;47.20;;;;;;5057234;28;20230;-83
2021/03/26 01:22:58;;;;;;;25.03;18.97;;;9.50;47.10;;;;;;5075528;28;20172;-83
2021/03/26 01:25:28;;;;;;;26.20;20.27;;;9.50;47.70;;;;;;5075179;28;20179;-85
2021/03/26 01:27:53;;;;;;;23.80;19.17;;;9.50;48.40;;;;;;5075201;28;20606;-84
2021/03/26 01:30:22;;;;;;;25.33;19.60;;;9.50;47.70;;;;;;5057196;28;20207;-83
2021/03/26 01:32:48;;;;;;;26.33;19.83;;;9.50;47.60;;;;;;5074982;28;20168;-81
2021/03/26 01:35:14;;;;;;;25.70;19.67;;;9.50;46.70;;;;;;5057215;28;20194;-84
2021/03/26 01:37:40;;;;;;;25.30;19.63;;;9.50;46.30;;;;;;5075071;28;20177;-84
2021/03/26 01:40:09;;;;;;;26.33;20.17;;;9.60;45.40;;;;;;5057110;28;20218;-83
2021/03/26 01:42:37;;;;;;;24.37;18.80;;;9.60;43.10;;;;;;5074821;28;20161;-85
2021/03/26 01:45:08;;;;;;;23.83;19.03;;;9.60;42.50;;;;;;5057479;28;20180;-83
2021/03/26 01:47:35;;;;;;;24.10;20.00;;;9.50;44.40;;;;;;5056644;28;20176;-81
2021/03/26 01:50:01;;;;;;;22.43;18.60;;;9.40;44.90;;;;;;5074431;28;20200;-83
2021/03/26 01:52:27;;;;;;;22.63;18.43;;;9.50;46.10;;;;;;5056737;28;20175;-84
2021/03/26 01:54:53;;;;;;;24.20;18.70;;;9.40;45.60;;;;;;5074859;28;20176;-81
2021/03/26 01:57:18;;;;;;;22.43;18.57;;;9.40;44.00;;;;;;5074790;28;20172;-84
2021/03/26 01:59:44;;;;;;;23.17;17.60;;;9.50;44.50;;;;;;5056976;28;20175;-85
2021/03/26 02:02:13;;;;;;;24.80;18.10;;;9.40;43.00;;;;;;5056786;28;20183;-86
2021/03/26 02:04:44;;;;;;;24.10;17.83;;;9.30;44.40;;;;;;5074635;28;20222;-85
2021/03/26 02:07:11;;;;;;;19.40;16.43;;;9.20;46.70;;;;;;5074685;28;20230;-85
2021/03/26 02:09:39;;;;;;;23.63;17.40;;;9.20;47.20;;;;;;5074648;28;20238;-84
2021/03/26 02:12:17;;;;;;;22.43;17.50;;;9.20;47.00;;;;;;5074679;28;20208;-82
2021/03/26 02:14:51;;;;;;;22.47;18.13;;;9.20;49.30;;;;;;5074737;28;20198;-85
2021/03/26 02:17:24;;;;;;;22.50;17.07;;;9.20;48.00;;;;;;5073898;28;20209;-84
2021/03/26 02:19:53;;;;;;;21.67;16.90;;;9.20;46.80;;;;;;5056705;28;20181;-85
2021/03/26 02:22:22;;;;;;;23.60;16.37;;;9.10;47.70;;;;;;5074222;28;20165;-84
2021/03/26 02:24:49;;;;;;;22.50;16.90;;;9.10;48.80;;;;;;5074703;28;20640;-86
2021/03/26 02:27:20;;;;;;;22.10;16.57;;;9.00;50.70;;;;;;5074231;28;20184;-84
2021/03/26 02:29:46;;;;;;;23.90;17.77;;;9.00;50.80;;;;;;5056509;28;20668;-84
2021/03/26 02:32:29;;;;;;;23.10;16.90;;;9.00;49.70;;;;;;5056282;28;20203;-85
2021/03/26 02:35:11;;;;;;;21.97;16.33;;;9.00;50.40;;;;;;5074128;28;20173;-81
2021/03/26 02:37:39;;;;;;;22.17;17.47;;;9.00;51.10;;;;;;5056233;28;20651;-82
2021/03/26 02:40:11;;;;;;;21.93;16.27;;;9.00;51.40;;;;;;5073540;28;20168;-81
2021/03/26 02:42:37;;;;;;;23.50;16.97;;;9.00;50.40;;;;;;5073490;28;20207;-82
2021/03/26 02:45:17;;;;;;;21.50;16.60;;;9.00;49.50;;;;;;5073940;28;20636;-84
2021/03/26 02:47:55;;;;;;;21.87;16.60;;;9.00;48.10;;;;;;5073716;28;20659;-80
2021/03/26 02:50:23;;;;;;;21.27;15.77;;;8.90;48.90;;;;;;5055934;28;20204;-81
2021/03/26 02:53:02;;;;;;;20.90;16.33;;;8.90;48.50;;;;;;5055595;28;20172;-81
2021/03/26 02:55:36;;;;;;;21.00;15.53;;;8.80;48.90;;;;;;5055535;28;20172;-81
2021/03/26 02:58:10;;;;;;;23.30;15.70;;;8.80;50.60;;;;;;5073206;28;20606;-79
2021/03/26 03:00:45;;;;;;;20.77;15.83;;;8.80;49.10;;;;;;5055179;28;20262;-81
2021/03/26 03:03:13;;;;;;;24.57;16.20;;;8.80;48.40;;;;;;5055130;28;20167;-80
2021/03/26 03:05:46;;;;;;;22.23;15.87;;;8.80;47.80;;;;;;5055627;28;20176;-81
2021/03/26 03:08:21;;;;;;;23.40;16.73;;;8.80;45.90;;;;;;5073582;28;20176;-83
2021/03/26 03:10:55;;;;;;;19.77;15.13;;;8.90;44.80;;;;;;5055703;28;20576;-85
2021/03/26 03:13:32;;;;;;;19.77;14.83;;;8.90;41.70;;;;;;5073403;28;20172;-80
2021/03/26 03:16:21;;;;;;;21.27;16.10;;;8.80;41.50;;;;;;5055630;28;20620;-82
2021/03/26 03:19:22;;;;;;;21.90;15.87;;;8.80;42.10;;;;;;5073179;28;20176;-83
2021/03/26 03:22:00;;;;;;;22.20;15.37;;;8.90;38.90;;;;;;5047580;28;20184;-83
2021/03/26 03:24:33;;;;;;;22.50;17.00;;;8.90;38.80;;;;;;5073303;28;20187;-83
2021/03/26 03:27:26;;;;;;;20.33;16.33;;;9.00;39.50;;;;;;5055206;28;20279;-81
2021/03/26 03:30:11;;;;;;;25.47;16.77;;;8.80;37.40;;;;;;5055018;28;20207;-82
2021/03/26 03:32:55;;;;;;;19.93;15.77;;;8.80;36.80;;;;;;5055305;28;20199;-79
2021/03/26 03:35:42;;;;;;;22.00;15.47;;;8.80;36.70;;;;;;5055242;28;20176;-85
2021/03/26 03:38:44;;;;;;;24.60;16.57;;;8.90;34.50;;;;;;5055479;28;20184;-84
2021/03/26 03:41:32;;;;;;;22.30;15.83;;;8.90;33.90;;;;;;5073425;28;20246;-83
2021/03/26 03:44:12;;;;;;;24.40;16.83;;;8.80;35.50;;;;;;5054828;28;20200;-82
2021/03/26 03:47:01;;;;;;;24.37;16.17;;;8.90;31.10;;;;;;5055128;28;20160;-84
2021/03/26 03:49:34;;;;;;;25.97;16.97;;;8.80;31.90;;;;;;5056829;28;20172;-84
2021/03/26 03:52:33;;;;;;;22.97;16.77;;;8.80;32.60;;;;;;5073138;28;20181;-81
2021/03/26 03:55:27;;;;;;;25.73;16.30;;;8.80;32.60;;;;;;5054289;28;20176;-83
2021/03/26 03:58:02;;;;;;;24.57;16.73;;;8.80;34.30;;;;;;5055198;28;20184;-83
2021/03/26 04:00:35;;;;;;;22.37;16.90;;;8.80;33.30;;;;;;5072858;28;20163;-83
2021/03/26 04:03:13;;;;;;;26.07;16.57;;;8.80;31.70;;;;;;5072341;28;20301;-84
2021/03/26 04:06:21;;;;;;;23.93;16.37;;;8.80;31.60;;;;;;5072937;28;20171;-85
2021/03/26 04:09:04;;;;;;;23.77;17.23;;;8.80;31.60;;;;;;4983548;28;20192;-83
2021/03/26 04:11:47;;;;;;;23.20;16.93;;;8.80;30.20;;;;;;5055146;28;20269;-82
2021/03/26 04:14:31;;;;;;;25.60;17.27;;;8.80;31.80;;;;;;5073303;28;20172;-80
2021/03/26 04:17:07;;;;;;;26.10;17.70;;;8.80;32.40;;;;;;5058900;28;20199;-84
2021/03/26 04:19:41;;;;;;;23.10;17.83;;;8.70;33.30;;;;;;5076490;28;20650;-82
2021/03/26 04:22:18;;;;;;;21.80;16.33;;;8.80;32.80;;;;;;5076621;28;20315;-84
2021/03/26 04:25:08;;;;;;;24.63;17.63;;;8.80;30.90;;;;;;5076280;28;20168;-82
2021/03/26 04:27:34;;;;;;;23.77;17.10;;;8.80;30.90;;;;;;5057412;28;20208;-83
2021/03/26 04:30:22;;;;;;;23.23;17.33;;;8.80;29.50;;;;;;5076139;28;20706;-81
2021/03/26 04:32:49;;;;;;;24.77;17.80;;;8.80;28.10;;;;;;5058500;28;20164;-84
2021/03/26 04:35:17;;;;;;;23.97;18.03;;;8.80;27.70;;;;;;5076428;28;20196;-84
2021/03/26 04:38:07;;;;;;;28.17;18.93;;;8.80;28.70;;;;;;5058143;28;20275;-84
2021/03/26 04:40:42;;;;;;;25.43;17.90;;;8.70;29.10;;;;;;5058250;28;20234;-81
2021/03/26 04:43:17;;;;;;;25.27;18.10;;;8.70;31.60;;;;;;5076016;28;20680;-83
2021/03/26 04:45:45;;;;;;;24.37;17.93;;;8.60;30.80;;;;;;5075806;28;20666;-81
2021/03/26 04:48:38;;;;;;;24.50;18.87;;;8.70;31.80;;;;;;5058079;28;20179;-81
2021/03/26 04:51:19;;;;;;;25.60;17.97;;;8.70;31.00;;;;;;5075781;28;20203;-83
2021/03/26 04:53:52;;;;;;;23.93;17.87;;;8.60;29.70;;;;;;5058303;28;20606;-84
2021/03/26 04:56:27;;;;;;;25.23;17.83;;;8.60;31.80;;;;;;5076016;28;20175;-84
2021/03/26 04:59:03;;;;;;;26.60;18.33;;;8.60;30.50;;;;;;5075752;28;20160;-82
2021/03/26 05:01:31;;;;;;;26.27;18.43;;;8.70;29.30;;;;;;5058007;28;20167;-85
2021/03/26 05:03:59;;;;;;;24.87;18.97;;;8.70;28.90;;;;;;5075862;28;20221;-85
2021/03/26 05:06:29;;;;;;;27.17;18.43;;;8.80;27.50;;;;;;5075399;28;20191;-83
2021/03/26 05:09:00;;;;;;;25.77;18.20;;;8.90;24.20;;;;;;5057646;28;20168;-84
2021/03/26 05:11:29;;;;;;;26.40;18.13;;;8.90;21.10;;;;;;5075001;28;20208;-84
2021/03/26 05:14:08;;;;;;;23.47;18.07;;;9.00;19.40;;;;;;5075771;28;20720;-83
2021/03/26 05:16:59;;;;;;;25.37;17.73;;;9.00;16.00;;;;;;5057733;28;20180;-84
2021/03/26 05:19:41;;;;;;;27.27;18.60;;;8.90;16.00;;;;;;5057734;28;20198;-85
2021/03/26 05:22:34;;;;;;;23.70;17.50;;;8.90;13.60;;;;;;5075443;28;20166;-81
2021/03/26 05:25:07;;;;;;;26.47;17.87;;;8.90;11.30;;;;;;5074737;28;20199;-83
2021/03/26 05:27:33;;;;;;;23.90;17.57;;;8.90;10.30;;;;;;5057066;28;20188;-84
2021/03/26 05:29:59;;;;;;;23.10;18.27;;;8.90;9.80;;;;;;5056724;28;20693;-80
2021/03/26 05:32:37;;;;;;;25.43;17.63;;;8.80;11.50;;;;;;5075174;28;20257;-82
2021/03/26 05:35:11;;;;;;;25.23;18.40;;;8.70;13.40;;;;;;5057132;28;20206;-83
2021/03/26 05:37:42;;;;;;;24.17;17.83;;;8.70;13.50;;;;;;5056676;28;20671;-79
2021/03/26 05:40:42;;;;;;;24.33;16.30;;;8.70;14.00;;;;;;5056627;28;20169;-82
2021/03/26 05:43:48;;;;;;;25.53;18.00;;;8.70;15.90;;;;;;5056967;28;20652;-82
2021/03/26 05:46:35;;;;;;;24.00;17.23;;;8.70;17.80;;;;;;5056802;28;20168;-83
2021/03/26 05:49:09;;;;;;;24.20;17.23;;;8.70;15.70;;;;;;5056453;28;20598;-84
2021/03/26 05:51:50;;;;;;;23.40;17.03;;;8.70;17.40;;;;;;5056713;28;20762;-80
2021/03/26 05:54:34;;;;;;;21.30;17.27;;;8.70;17.70;;;;;;5074931;28;20172;-85
2021/03/26 05:57:17;;;;;;;26.17;17.60;;;8.70;16.80;;;;;;5075522;28;20179;-85
2021/03/26 06:00:04;;;;;;;25.23;17.60;;;8.80;15.10;;;;;;5056442;28;20182;-82
2021/03/26 06:02:41;;;;;;;24.90;17.03;;;8.80;12.10;;;;;;5074689;28;20169;-83
2021/03/26 06:05:23;;;;;;;24.23;17.83;;;8.80;13.80;;;;;;5074789;28;20167;-84
2021/03/26 06:08:07;;;;;;;27.20;18.10;;;8.80;12.10;;;;;;5056466;28;20604;-84
2021/03/26 06:10:52;;;;;;;23.27;15.90;;;8.80;12.10;;;;;;5074453;28;20253;-85
2021/03/26 06:13:42;;;;;;;25.13;17.27;;;8.80;11.30;;;;;;5074599;28;20632;-84
2021/03/26 06:16:29;;;;;;;23.23;16.90;;;8.80;11.00;;;;;;5056458;28;20263;-84
2021/03/26 06:19:21;;;;;;;25.73;16.80;;;8.90;9.40;;;;;;5055879;28;20252;-85
2021/03/26 06:22:00;;;;;;;25.93;15.93;;;8.90;8.30;;;;;;5073606;28;20179;-82
2021/03/26 06:24:25;;;;;;;24.43;16.77;;;9.00;6.00;;;;;;5073595;28;20171;-83
2021/03/26 06:27:09;;;;;;;23.53;16.57;;;9.00;2.80;;;;;;5073603;28;20177;-86
2021/03/26 06:30:00;;;;;;;25.80;16.50;;;9.20;1.00;;;;;;5073961;28;20255;-82
2021/03/26 06:33:00;;;;;;;21.57;15.00;;;9.30;1.00;;;;;;5073651;28;20700;-85
2021/03/26 06:35:45;;;;;;;22.67;15.40;;;9.50;1.00;;;;;;5055899;28;20279;-82
2021/03/26 06:38:31;;;;;;;22.57;14.07;;;9.50;1.00;;;;;;5072668;28;20176;-82
2021/03/26 06:41:04;;;;;;;23.40;16.20;;;9.60;1.00;;;;;;5056292;28;20632;-81
2021/03/26 06:43:52;;;;;;;18.37;13.87;;;9.70;1.00;;;;;;5080493;28;20240;-86
2021/03/26 06:46:32;;;;;;;18.53;13.93;;;9.70;1.00;;;;;;5059200;28;20179;-83
2021/03/26 06:49:17;;;;;;;20.30;14.03;;;9.70;1.00;;;;;;5062678;28;20179;-84
2021/03/26 06:52:07;;;;;;;19.90;13.67;;;9.80;1.00;;;;;;5061471;28;20208;-81
2021/03/26 06:54:47;;;;;;;23.03;14.00;;;9.80;1.00;;;;;;5078100;28;20210;-84
2021/03/26 06:57:30;;;;;;;19.43;14.27;;;9.80;1.00;;;;;;5097772;28;20159;-81
2021/03/26 07:00:13;;;;;;;18.67;14.67;;;9.70;1.00;;;;;;5080654;28;20217;-82
2021/03/26 07:03:13;;;;;;;21.37;14.17;;;9.70;1.00;;;;;;5082019;28;20202;-85
2021/03/26 07:05:58;;;;;;;20.03;13.33;;;10.00;1.00;;;;;;5101805;28;20227;-86
2021/03/26 07:08:30;;;;;;;20.63;13.53;;;10.20;1.00;;;;;;5074788;28;20241;-87
2021/03/26 07:11:35;;;;;;;20.67;14.00;;;10.30;1.00;;;;;;5092230;28;20663;-81
2021/03/26 07:14:41;;;;;;;17.87;12.97;;;10.30;1.00;;;;;;5033758;28;20662;-83
2021/03/26 07:17:32;;;;;;;19.50;12.57;;;10.20;1.00;;;;;;5074136;28;20485;-85
2021/03/26 07:20:26;;;;;;;19.23;12.47;;;10.10;1.00;;;;;;5074368;28;20179;-82
2021/03/26 07:23:13;;;;;;;18.43;11.77;;;10.20;1.00;;;;;;5074320;28;20236;-80
2021/03/26 07:26:11;;;;;;;21.90;12.97;;;10.20;1.00;;;;;;5092891;28;20163;-81
2021/03/26 07:29:27;;;;;;;17.40;12.23;;;10.20;1.00;;;;;;5059254;28;20192;-82
2021/03/26 07:32:16;;;;;;;17.57;11.27;;;10.20;1.00;;;;;;5078452;28;20263;-81
2021/03/26 07:35:15;;;;;;;21.50;13.07;;;10.20;1.00;;;;;;5058181;28;20176;-82
2021/03/26 07:37:59;;;;;;;18.30;12.73;;;10.20;1.00;;;;;;5072542;28;20172;-82
2021/03/26 07:40:49;;;;;;;19.10;12.07;;;10.20;1.00;;;;;;5061850;28;20548;-79
2021/03/26 07:43:37;;;;;;;20.73;11.90;;;10.30;1.00;;;;;;5063574;28;20274;-80
2021/03/26 07:46:21;;;;;;;16.37;10.20;;;10.40;1.00;;;;;;5072612;28;20256;-81
2021/03/26 07:48:59;;;;;;;15.10;10.83;;;10.50;1.00;;;;;;5054903;28;20933;-83
2021/03/26 07:51:55;;;;;;;16.73;11.30;;;10.50;1.00;;;;;;5075548;28;20614;-82
2021/03/26 07:54:49;;;;;;;15.40;11.07;;;10.50;1.00;;;;;;5075829;28;20160;-80
2021/03/26 07:57:52;;;;;;;19.83;10.80;;;10.60;1.00;;;;;;5085925;28;20172;-79
2021/03/26 08:00:22;;;;;;;13.57;9.73;;;10.70;1.00;;;;;;5062332;28;20201;-80
2021/03/26 08:03:18;;;;;;;12.37;9.73;;;10.60;1.00;;;;;;5094986;28;20221;-81
2021/03/26 08:06:19;;;;;;;22.27;11.40;;;10.60;1.00;;;;;;5088302;28;20179;-80
2021/03/26 08:09:07;;;;;;;17.47;9.77;;;10.70;1.00;;;;;;4973949;28;20762;-80
2021/03/26 08:11:58;;;;;;;16.63;10.27;;;10.70;1.00;;;;;;5053975;28;20224;-80
2021/03/26 08:14:56;;;;;;;19.07;9.97;;;10.80;1.00;;;;;;5077001;28;20179;-81
2021/03/26 08:17:26;;;;;;;15.13;9.80;;;10.90;99.90;;;;;;5095400;28;20245;-79
2021/03/26 08:20:31;;;;;;;15.67;9.97;;;10.90;99.90;;;;;;5095006;28;20239;-82
2021/03/26 08:23:31;;;;;;;15.73;9.30;;;10.90;99.90;;;;;;5076072;28;20184;-81
2021/03/26 08:26:08;;;;;;;12.73;8.83;;;10.90;99.90;;;;;;5095129;28;20654;-82
2021/03/26 08:29:17;;;;;;;19.33;10.37;;;10.90;99.90;;;;;;5056747;28;20179;-82
2021/03/26 08:32:10;;;;;;;17.07;9.70;;;10.90;99.90;;;;;;5074512;28;20200;-83
2021/03/26 08:35:10;;;;;;;19.67;9.77;;;11.00;99.90;;;;;;5073963;28;20167;-81
2021/03/26 08:38:01;;;;;;;17.77;8.93;;;11.00;1.00;;;;;;5074010;28;20168;-82
2021/03/26 08:40:58;;;;;;;14.50;8.70;;;11.10;1.00;;;;;;5056567;28;20186;-81
2021/03/26 08:43:26;;;;;;;14.83;7.93;;;11.20;1.00;;;;;;5056556;28;20211;-79
2021/03/26 08:46:31;;;;;;;14.57;7.80;;;11.10;99.90;;;;;;5059316;28;20174;-80
2021/03/26 08:49:19;;;;;;;15.07;8.07;;;11.20;99.90;;;;;;5090451;28;20261;-79
2021/03/26 08:52:26;;;;;;;14.10;8.20;;;11.30;80.30;;;;;;5076179;28;20694;-84
2021/03/26 08:55:22;;;;;;;15.43;8.87;;;11.40;99.90;;;;;;4992548;28;20210;-82
2021/03/26 08:58:20;;;;;;;17.40;8.20;;;11.40;99.90;;;;;;5080320;28;20632;-81
2021/03/26 09:01:05;;;;;;;12.67;7.40;;;11.50;1.00;;;;;;5064514;28;20179;-83
2021/03/26 09:04:02;;;;;;;17.23;7.73;;;11.50;1.00;;;;;;5062271;28;20617;-83
2021/03/26 09:06:48;;;;;;;15.10;7.47;;;11.50;1.00;;;;;;5093566;28;20175;-82
2021/03/26 09:09:43;;;;;;;14.33;6.97;;;11.60;1.00;;;;;;5056634;28;20381;-81
2021/03/26 09:12:43;;;;;;;15.70;7.17;;;11.70;99.90;;;;;;5055592;28;20184;-81
2021/03/26 09:15:24;;;;;;;10.43;6.80;;;11.70;99.90;;;;;;5073482;28;20632;-81
2021/03/26 09:18:11;;;;;;;13.50;7.40;;;11.60;99.90;;;;;;5074588;28;20195;-83
2021/03/26 09:20:43;;;;;;;12.20;7.07;;;11.80;99.90;;;;;;5075241;28;20172;-83
2021/03/26 09:23:48;;;;;;;10.20;6.00;;;11.80;1.00;;;;;;5093956;28;20167;-82
2021/03/26 09:26:48;;;;;;;12.30;6.50;;;11.90;99.90;;;;;;5074580;28;20560;-81
2021/03/26 09:29:24;;;;;;;17.93;6.73;;;12.00;1.00;;;;;;5073198;28;20172;-80
2021/03/26 09:31:52;;;;;;;10.80;5.40;;;12.00;99.90;;;;;;5054843;28;20295;-82
2021/03/26 09:34:32;;;;;;;13.20;5.90;;;11.90;76.20;;;;;;5087739;28;20232;-83
2021/03/26 09:37:23;;;;;;;12.00;6.57;;;11.90;99.90;;;;;;5093219;28;20262;-83
2021/03/26 09:39:54;;;;;;;10.17;5.67;;;12.00;1.00;;;;;;5082715;28;20184;-81
2021/03/26 09:42:29;;;;;;;15.57;6.17;;;12.00;1.00;;;;;;5092810;28;20198;-82
2021/03/26 09:45:09;;;;;;;13.23;6.43;;;12.00;99.90;;;;;;5093312;28;20221;-82
2021/03/26 09:47:41;;;;;;;14.27;6.50;;;12.00;99.90;;;;;;5075482;28;20187;-84
2021/03/26 09:50:34;;;;;;;16.60;5.73;;;12.00;99.90;;;;;;5072944;28;20192;-81
2021/03/26 09:53:06;;;;;;;9.43;5.90;;;12.00;99.90;;;;;;5056912;28;20446;-81
2021/03/26 09:55:39;;;;;;;15.33;6.73;;;12.00;1.00;;;;;;5062362;28;20493;-81
2021/03/26 09:58:28;;;;;;;11.57;6.30;;;12.00;99.90;;;;;;5072523;28;20172;-84
2021/03/26 10:01:06;;;;;;;15.40;7.07;;;12.10;1.00;;;;;;5072055;28;20222;-82
2021/03/26 10:03:41;;;;;;;10.33;6.87;;;12.10;1.00;;;;;;5053417;28;20217;-81
2021/03/26 10:06:17;;;;;;;12.20;7.20;;;12.20;1.00;;;;;;5072275;28;20175;-82
2021/03/26 10:09:04;;;;;;;15.00;7.90;;;12.40;99.90;;;;;;5054749;28;20180;-81
2021/03/26 10:11:53;;;;;;;12.97;6.60;;;12.40;1.00;;;;;;5054820;28;20775;-83
2021/03/26 10:14:28;;;;;;;18.03;7.30;;;12.60;99.90;;;;;;5043418;28;20195;-82
2021/03/26 10:17:11;;;;;;;18.37;6.23;;;12.70;1.00;;;;;;5072342;28;20168;-83
2021/03/26 10:19:40;;;;;;;12.70;6.20;;;12.80;1.00;;;;;;5072732;28;20215;-80
2021/03/26 10:22:27;;;;;;;16.30;6.27;;;13.10;99.90;;;;;;5054539;28;20284;-82
2021/03/26 10:24:59;;;;;;;12.43;6.50;;;13.10;99.90;;;;;;5072380;28;20195;-80
2021/03/26 10:27:35;;;;;;;12.57;6.10;;;13.30;99.90;;;;;;5071966;28;20196;-82
2021/03/26 10:30:22;;;;;;;7.73;4.23;;;13.20;99.90;;;;;;5053489;28;20701;-83
2021/03/26 10:32:50;;;;;;;7.37;3.87;;;13.20;99.90;;;;;;5054785;28;20180;-81
2021/03/26 10:35:27;;;;;;;10.90;3.23;;;13.20;99.90;;;;;;5054698;28;20183;-82
2021/03/26 10:38:00;;;;;;;9.73;2.80;;;13.20;99.90;;;;;;5054391;28;20183;-85
2021/03/26 10:40:57;;;;;;;7.33;3.00;;;13.20;99.90;;;;;;5055373;28;20184;-82
2021/03/26 10:43:35;;;;;;;11.83;3.00;;;13.30;85.60;;;;;;5072793;28;20668;-83
2021/03/26 10:46:34;;;;;;;11.90;3.13;;;13.20;85.90;;;;;;5072252;28;20247;-82
2021/03/26 10:49:23;;;;;;;8.60;2.67;;;13.20;59.40;;;;;;5043188;28;20582;-84
2021/03/26 10:51:54;;;;;;;7.57;3.00;;;13.20;30.90;;;;;;5072689;28;20208;-81
2021/03/26 10:54:29;;;;;;;16.70;3.03;;;13.40;30.30;;;;;;5054514;28;20176;-81
2021/03/26 10:56:57;;;;;;;8.90;2.63;;;13.70;1.00;;;;;;5072428;28;20401;-81
2021/03/26 10:59:36;;;;;;;9.60;3.10;;;13.80;1.00;;;;;;5072441;28;20183;-84
2021/03/26 11:02:33;;;;;;;8.60;3.50;;;14.00;1.00;;;;;;5054474;28;20182;-82
2021/03/26 11:05:23;;;;;;;6.70;2.80;;;14.10;1.00;;;;;;5072927;28;20225;-82
2021/03/26 11:08:18;;;;;;;8.93;3.73;;;13.90;1.00;;;;;;5071808;28;20278;-83
2021/03/26 11:10:59;;;;;;;6.87;3.33;;;13.90;1.00;;;;;;5027612;28;20270;-83
2021/03/26 11:13:51;;;;;;;6.87;2.80;;;13.70;10.70;;;;;;5071930;28;20171;-83
2021/03/26 11:16:28;;;;;;;11.13;3.40;;;13.60;48.20;;;;;;5072341;28;20180;-79
2021/03/26 11:19:07;;;;;;;9.80;3.40;;;13.60;61.60;;;;;;5072320;28;20168;-81
2021/03/26 11:21:54;;;;;;;5.03;3.03;;;13.60;43.30;;;;;;5072134;28;20166;-81
2021/03/26 11:24:21;;;;;;;6.00;3.47;;;13.50;1.00;;;;;;5071893;28;20207;-83
2021/03/26 11:27:03;;;;;;;7.03;3.07;;;13.60;1.00;;;;;;5053391;28;20667;-82
2021/03/26 11:29:36;;;;;;;11.80;2.77;;;13.60;1.00;;;;;;5071562;28;20169;-83
2021/03/26 11:32:23;;;;;;;7.80;2.70;;;13.60;1.00;;;;;;5054089;28;20671;-80
2021/03/26 11:35:09;;;;;;;9.30;2.50;;;13.70;1.00;;;;;;5070930;28;20243;-82
2021/03/26 11:38:01;;;;;;;6.93;2.53;;;13.60;1.00;;;;;;5071422;28;20255;-81
2021/03/26 11:40:42;;;;;;;6.90;2.23;;;13.60;1.00;;;;;;5071730;28;20195;-81
2021/03/26 11:43:26;;;;;;;7.20;1.90;;;13.70;1.00;;;;;;5071216;28;20261;-82
2021/03/26 11:46:01;;;;;;;6.50;2.07;;;13.70;1.00;;;;;;5053381;28;20174;-81
2021/03/26 11:48:49;;;;;;;10.70;2.47;;;13.70;1.00;;;;;;5070537;28;20725;-79
2021/03/26 11:51:30;;;;;;;9.80;2.87;;;13.70;1.00;;;;;;5069965;28;20211;-80
2021/03/26 11:54:33;;;;;;;5.63;2.07;;;13.70;1.00;;;;;;5070981;28;20168;-81
2021/03/26 11:57:10;;;;;;;9.37;1.83;;;13.70;1.00;;;;;;5070619;28;20176;-81
2021/03/26 12:00:05;;;;;;;8.53;2.40;;;13.80;1.00;;;;;;5071105;28;20165;-80
2021/03/26 12:03:12;;;;;;;14.63;3.30;;;13.70;1.00;;;;;;5053286;28;20176;-81
2021/03/26 12:05:56;;;;;;;10.47;3.43;;;13.70;1.00;;;;;;5021626;28;20184;-79
2021/03/26 12:08:46;;;;;;;7.47;3.40;;;13.60;1.00;;;;;;5071136;28;20173;-80
2021/03/26 12:11:12;;;;;;;8.77;4.17;;;13.60;1.00;;;;;;5052679;28;20258;-80
2021/03/26 12:13:45;;;;;;;7.87;3.47;;;13.60;1.00;;;;;;5070802;28;20200;-79
2021/03/26 12:16:32;;;;;;;6.77;3.10;;;13.70;1.00;;;;;;5070790;28;20175;-82
2021/03/26 12:19:13;;;;;;;8.83;3.40;;;13.70;1.00;;;;;;5070830;28;20199;-79
2021/03/26 12:21:48;;;;;;;6.40;3.30;;;13.70;1.00;;;;;;5070827;28;20196;-82
2021/03/26 12:24:23;;;;;;;11.50;3.53;;;13.90;1.00;;;;;;5071163;28;20171;-80
2021/03/26 12:27:00;;;;;;;7.03;2.83;;;13.90;1.00;;;;;;5070589;28;20195;-82
2021/03/26 12:29:47;;;;;;;10.57;2.67;;;14.00;1.00;;;;;;5070728;28;20217;-80
2021/03/26 12:33:00;;;;;;;6.07;2.63;;;13.80;1.00;;;;;;5070922;28;20226;-79
2021/03/26 12:35:42;;;;;;;5.33;2.50;;;13.70;1.00;;;;;;5062217;28;20207;-80
2021/03/26 12:38:24;;;;;;;6.07;2.70;;;13.80;1.00;;;;;;5073975;28;20168;-82
2021/03/26 12:40:55;;;;;;;5.30;2.90;;;13.80;1.00;;;;;;5073889;28;20625;-83
2021/03/26 12:43:30;;;;;;;3.90;2.10;;;13.90;1.00;;;;;;5073924;28;20193;-80
2021/03/26 12:46:37;;;;;;;7.40;2.50;;;14.10;1.00;;;;;;5073801;28;20171;-83
2021/03/26 12:49:06;;;;;;;7.67;2.70;;;14.30;1.00;;;;;;5043740;28;20176;-80
2021/03/26 12:51:38;;;;;;;7.13;3.40;;;14.40;1.00;;;;;;5074081;28;20219;-79
2021/03/26 12:54:16;;;;;;;7.63;2.60;;;14.30;1.00;;;;;;5073800;28;20166;-80
2021/03/26 12:56:49;;;;;;;8.20;2.90;;;14.40;1.00;;;;;;5073628;28;20230;-80
2021/03/26 12:59:25;;;;;;;4.73;2.43;;;14.40;1.00;;;;;;5073990;28;20169;-83
2021/03/26 13:02:17;;;;;;;7.87;3.20;;;14.30;1.00;;;;;;5073584;28;20189;-81
2021/03/26 13:04:59;;;;;;;9.13;2.83;;;14.30;1.00;;;;;;5068585;28;20192;-80
2021/03/26 13:07:56;;;;;;;8.07;3.47;;;14.20;1.00;;;;;;5055442;28;20176;-81
2021/03/26 13:10:44;;;;;;;9.80;3.20;;;14.10;1.00;;;;;;5055160;28;20300;-79
2021/03/26 13:13:23;;;;;;;5.83;3.00;;;14.10;1.00;;;;;;5073737;28;20165;-81
2021/03/26 13:16:24;;;;;;;10.67;3.23;;;14.00;1.00;;;;;;5074102;28;20248;-81
2021/03/26 13:18:59;;;;;;;10.10;3.87;;;14.10;1.00;;;;;;5073109;28;20164;-82
2021/03/26 13:21:40;;;;;;;5.60;2.97;;;14.20;1.00;;;;;;5073051;28;20183;-80
2021/03/26 13:24:40;;;;;;;6.17;2.93;;;14.30;1.00;;;;;;5072822;28;20160;-80
2021/03/26 13:27:27;;;;;;;7.47;3.10;;;14.30;1.00;;;;;;5072897;28;20192;-82
2021/03/26 13:30:11;;;;;;;6.70;3.00;;;14.10;1.00;;;;;;5073490;28;20236;-82
2021/03/26 13:33:05;;;;;;;7.73;3.73;;;14.20;1.00;;;;;;5073109;28;20177;-80
2021/03/26 13:35:40;;;;;;;7.30;3.30;;;14.40;1.00;;;;;;5039226;28;20531;-79
2021/03/26 13:38:34;;;;;;;6.37;2.60;;;14.60;1.00;;;;;;5054353;28;20168;-80
2021/03/26 13:41:06;;;;;;;6.83;3.27;;;14.70;1.00;;;;;;5073178;28;20175;-80
2021/03/26 13:43:42;;;;;;;6.73;3.30;;;14.60;1.00;;;;;;5072452;28;20191;-80
2021/03/26 13:46:21;;;;;;;9.67;4.00;;;14.50;1.00;;;;;;5071901;28;20204;-80
2021/03/26 13:48:49;;;;;;;7.33;3.30;;;14.50;1.00;;;;;;5054220;28;20632;-79
2021/03/26 13:51:17;;;;;;;8.17;3.30;;;14.70;1.00;;;;;;5072190;28;20695;-78